createdAt,value
2022-12-29T00:00:08.347Z,48.88
2022-12-29T00:01:08.402Z,56.02
2022-12-29T00:02:08.332Z,53.62
2022-12-29T00:03:08.380Z,54.86
2022-12-29T00:04:14.303Z,54.76
2022-12-29T00:05:10.335Z,52.81
2022-12-29T00:06:08.308Z,54.38
2022-12-29T00:07:08.324Z,51.15
2022-12-29T00:08:08.314Z,51.33
2022-12-29T00:09:08.303Z,55.23
2022-12-29T00:10:08.263Z,51.51
2022-12-29T00:11:08.269Z,53.31
2022-12-29T00:12:08.254Z,53.23
2022-12-29T00:13:08.269Z,54.20
2022-12-29T00:14:08.251Z,48.97
2022-12-29T00:15:08.213Z,53.97
2022-12-29T00:16:08.241Z,55.14
2022-12-29T00:17:08.253Z,50.41
2022-12-29T00:18:08.236Z,53.08
2022-12-29T00:19:08.197Z,54.87
2022-12-29T00:20:08.198Z,56.83
2022-12-29T00:21:08.214Z,53.28
2022-12-29T00:22:08.300Z,54.01
2022-12-29T00:23:08.187Z,55.31
2022-12-29T00:24:08.160Z,58.90
2022-12-29T00:25:08.159Z,57.23
2022-12-29T00:26:08.158Z,53.73
2022-12-29T00:27:08.165Z,54.14
2022-12-29T00:28:08.166Z,54.49
2022-12-29T00:29:08.134Z,54.02
2022-12-29T00:30:08.113Z,55.70
2022-12-29T00:31:08.137Z,56.62
2022-12-29T00:32:08.119Z,55.78
2022-12-29T00:33:08.128Z,55.12
2022-12-29T00:34:08.103Z,53.74
2022-12-29T00:35:08.103Z,55.29
2022-12-29T00:36:08.098Z,55.10
2022-12-29T00:37:08.065Z,50.08
2022-12-29T00:38:08.074Z,50.90
2022-12-29T00:39:08.074Z,55.04
2022-12-29T00:40:08.066Z,50.63
2022-12-29T00:41:08.241Z,49.34
2022-12-29T00:42:08.188Z,55.35
2022-12-29T00:43:08.027Z,55.69
2022-12-29T00:44:08.018Z,54.14
2022-12-29T00:45:08.046Z,54.79
2022-12-29T00:46:08.132Z,57.10
2022-12-29T00:47:08.064Z,54.37
2022-12-29T00:48:08.020Z,54.61
2022-12-29T00:49:07.995Z,50.73
2022-12-29T00:50:08.015Z,49.84
2022-12-29T00:51:08.006Z,51.56
2022-12-29T00:52:07.972Z,49.43
2022-12-29T00:53:07.958Z,52.51
2022-12-29T00:54:07.964Z,52.63
2022-12-29T00:55:07.947Z,48.66
2022-12-29T00:56:07.974Z,50.50
2022-12-29T00:57:07.925Z,54.89
2022-12-29T00:58:07.929Z,49.91
2022-12-29T00:59:07.919Z,48.58
2022-12-29T01:00:07.939Z,53.17
2022-12-29T01:01:07.967Z,52.25
2022-12-29T01:02:07.999Z,54.68
2022-12-29T01:03:07.923Z,51.29
2022-12-29T01:04:07.959Z,53.32
2022-12-29T01:05:07.895Z,48.59
2022-12-29T01:06:07.902Z,50.66
2022-12-29T01:07:07.874Z,49.95
2022-12-29T01:08:07.838Z,52.19
2022-12-29T01:09:07.841Z,49.41
2022-12-29T01:10:07.834Z,52.26
2022-12-29T01:11:07.829Z,48.28
2022-12-29T01:12:07.833Z,50.60
2022-12-29T01:13:07.801Z,48.44
2022-12-29T01:14:07.851Z,48.08
2022-12-29T01:15:07.811Z,52.04
2022-12-29T01:16:07.852Z,51.19
2022-12-29T01:17:07.803Z,53.83
2022-12-29T01:18:07.787Z,53.71
2022-12-29T01:19:07.788Z,52.35
2022-12-29T01:20:07.784Z,52.09
2022-12-29T01:21:07.762Z,47.95
2022-12-29T01:22:07.764Z,48.80
2022-12-29T01:23:07.734Z,49.78
2022-12-29T01:24:07.752Z,48.54
2022-12-29T01:25:07.740Z,49.29
2022-12-29T01:26:07.723Z,50.96
2022-12-29T01:27:07.709Z,52.27
2022-12-29T01:28:07.707Z,51.40
2022-12-29T01:29:07.716Z,52.71
2022-12-29T01:30:07.699Z,55.68
2022-12-29T01:31:07.748Z,53.18
2022-12-29T01:32:07.675Z,49.07
2022-12-29T01:33:07.675Z,53.02
2022-12-29T01:34:07.678Z,49.67
2022-12-29T01:35:07.671Z,54.51
2022-12-29T01:36:07.651Z,50.40
2022-12-29T01:37:07.644Z,51.50
2022-12-29T01:38:07.630Z,52.57
2022-12-29T01:39:07.617Z,48.67
2022-12-29T01:40:07.622Z,49.82
2022-12-29T01:41:07.615Z,50.07
2022-12-29T01:42:07.610Z,52.30
2022-12-29T01:43:07.604Z,52.29
2022-12-29T01:44:07.582Z,54.22
2022-12-29T01:45:07.580Z,57.22
2022-12-29T01:46:07.586Z,52.97
2022-12-29T01:47:07.609Z,54.68
2022-12-29T01:48:07.554Z,52.51
2022-12-29T01:49:07.564Z,50.66
2022-12-29T01:50:07.536Z,50.91
2022-12-29T01:51:07.531Z,49.10
2022-12-29T01:52:07.553Z,47.29
2022-12-29T01:53:07.508Z,49.44
2022-12-29T01:54:07.522Z,51.88
2022-12-29T01:55:07.501Z,49.83
2022-12-29T01:56:07.509Z,51.59
2022-12-29T01:57:07.498Z,49.34
2022-12-29T01:58:07.492Z,52.44
2022-12-29T01:59:08.508Z,51.58
2022-12-29T02:00:07.466Z,53.77
2022-12-29T02:01:07.513Z,51.66
2022-12-29T02:02:07.482Z,50.72
2022-12-29T02:03:07.575Z,52.84
2022-12-29T02:04:07.445Z,54.05
2022-12-29T02:05:07.489Z,51.58
2022-12-29T02:06:07.436Z,48.79
2022-12-29T02:07:07.419Z,50.33
2022-12-29T02:08:07.411Z,54.42
2022-12-29T02:09:07.417Z,51.03
2022-12-29T02:10:07.411Z,52.55
2022-12-29T02:11:07.393Z,56.12
2022-12-29T02:12:07.392Z,54.48
2022-12-29T02:13:07.367Z,49.47
2022-12-29T02:14:07.381Z,49.87
2022-12-29T02:15:07.395Z,47.49
2022-12-29T02:16:07.433Z,50.54
2022-12-29T02:17:07.393Z,50.12
2022-12-29T02:18:07.349Z,50.78
2022-12-29T02:19:07.364Z,53.56
2022-12-29T02:20:07.343Z,53.71
2022-12-29T02:21:07.323Z,55.27
2022-12-29T02:22:07.363Z,56.32
2022-12-29T02:23:07.309Z,51.09
2022-12-29T02:24:07.307Z,48.88
2022-12-29T02:25:07.298Z,52.41
2022-12-29T02:26:07.306Z,51.74
2022-12-29T02:27:07.294Z,52.84
2022-12-29T02:28:07.278Z,54.14
2022-12-29T02:29:07.265Z,53.96
2022-12-29T02:30:07.261Z,53.67
2022-12-29T02:31:07.332Z,52.09
2022-12-29T02:32:07.335Z,50.07
2022-12-29T02:33:07.238Z,51.13
2022-12-29T02:34:07.231Z,55.02
2022-12-29T02:35:07.227Z,54.62
2022-12-29T02:36:07.234Z,52.17
2022-12-29T02:37:07.218Z,49.73
2022-12-29T02:38:07.214Z,53.81
2022-12-29T02:39:07.200Z,51.47
2022-12-29T02:40:07.186Z,51.33
2022-12-29T02:41:07.199Z,51.17
2022-12-29T02:42:07.193Z,52.58
2022-12-29T02:43:07.189Z,52.12
2022-12-29T02:44:07.169Z,50.65
2022-12-29T02:45:07.181Z,53.91
2022-12-29T02:46:07.220Z,51.43
2022-12-29T02:47:07.145Z,52.61
2022-12-29T02:48:07.153Z,51.88
2022-12-29T02:49:07.125Z,49.84
2022-12-29T02:50:07.126Z,53.04
2022-12-29T02:51:07.152Z,55.12
2022-12-29T02:52:07.137Z,50.69
2022-12-29T02:53:07.117Z,55.16
2022-12-29T02:54:07.099Z,51.22
2022-12-29T02:55:07.092Z,51.02
2022-12-29T02:56:07.072Z,52.22
2022-12-29T02:57:08.114Z,52.80
2022-12-29T02:58:07.072Z,47.79
2022-12-29T02:59:07.066Z,52.86
2022-12-29T03:00:07.055Z,57.30
2022-12-29T03:01:07.070Z,50.66
2022-12-29T03:02:07.246Z,53.69
2022-12-29T03:03:07.069Z,55.11
2022-12-29T03:04:07.014Z,53.32
2022-12-29T03:05:07.024Z,49.11
2022-12-29T03:06:07.004Z,52.83
2022-12-29T03:07:07.066Z,50.22
2022-12-29T03:08:06.988Z,52.67
2022-12-29T03:09:06.987Z,54.67
2022-12-29T03:10:07.971Z,52.25
2022-12-29T03:11:06.983Z,53.05
2022-12-29T03:12:06.963Z,51.99
2022-12-29T03:13:06.960Z,51.46
2022-12-29T03:14:06.943Z,54.66
2022-12-29T03:15:06.948Z,49.66
2022-12-29T03:16:07.496Z,50.92
2022-12-29T03:17:07.009Z,53.09
2022-12-29T03:18:06.975Z,53.47
2022-12-29T03:19:06.928Z,52.42
2022-12-29T03:20:06.910Z,55.34
2022-12-29T03:21:06.900Z,52.93
2022-12-29T03:22:06.891Z,52.67
2022-12-29T03:23:06.890Z,53.98
2022-12-29T03:24:06.884Z,54.75
2022-12-29T03:25:06.898Z,51.26
2022-12-29T03:26:06.867Z,55.40
2022-12-29T03:27:06.856Z,53.51
2022-12-29T03:28:06.841Z,57.10
2022-12-29T03:29:06.887Z,55.03
2022-12-29T03:30:06.835Z,48.51
2022-12-29T03:31:06.867Z,52.13
2022-12-29T03:32:06.830Z,56.44
2022-12-29T03:33:06.813Z,54.50
2022-12-29T03:34:06.831Z,52.33
2022-12-29T03:35:06.804Z,55.37
2022-12-29T03:36:06.796Z,58.25
2022-12-29T03:37:06.786Z,59.85
2022-12-29T03:38:06.783Z,55.48
2022-12-29T03:39:06.786Z,56.31
2022-12-29T03:40:06.815Z,55.60
2022-12-29T03:41:06.758Z,54.44
2022-12-29T03:42:06.778Z,56.88
2022-12-29T03:43:06.777Z,55.60
2022-12-29T03:44:06.759Z,54.26
2022-12-29T03:45:06.753Z,57.43
2022-12-29T03:46:06.858Z,55.13
2022-12-29T03:47:06.768Z,56.42
2022-12-29T03:48:06.708Z,59.38
2022-12-29T03:49:06.715Z,60.03
2022-12-29T03:50:06.705Z,58.10
2022-12-29T03:51:06.710Z,56.62
2022-12-29T03:52:06.677Z,58.22
2022-12-29T03:53:06.664Z,58.72
2022-12-29T03:54:06.709Z,56.95
2022-12-29T03:55:06.696Z,56.08
2022-12-29T03:56:06.685Z,59.02
2022-12-29T03:57:06.666Z,59.61
2022-12-29T03:58:06.650Z,55.96
2022-12-29T03:59:06.619Z,59.04
2022-12-29T04:00:06.661Z,58.67
2022-12-29T04:01:06.642Z,57.04
2022-12-29T04:02:06.751Z,56.71
2022-12-29T04:03:06.709Z,57.39
2022-12-29T04:04:06.597Z,57.85
2022-12-29T04:05:06.593Z,56.78
2022-12-29T04:06:06.593Z,53.72
2022-12-29T04:07:06.574Z,57.16
2022-12-29T04:08:06.561Z,56.06
2022-12-29T04:09:06.570Z,56.20
2022-12-29T04:10:06.573Z,56.41
2022-12-29T04:11:06.575Z,57.18
2022-12-29T04:12:06.539Z,56.71
2022-12-29T04:13:06.536Z,54.70
2022-12-29T04:14:06.529Z,53.73
2022-12-29T04:15:06.522Z,55.71
2022-12-29T04:16:06.546Z,55.65
2022-12-29T04:17:06.509Z,55.12
2022-12-29T04:18:06.487Z,55.83
2022-12-29T04:19:06.492Z,57.34
2022-12-29T04:20:06.488Z,56.41
2022-12-29T04:21:06.485Z,55.62
2022-12-29T04:22:06.492Z,56.00
2022-12-29T04:23:06.458Z,56.36
2022-12-29T04:24:06.456Z,55.17
2022-12-29T04:25:06.457Z,56.41
2022-12-29T04:26:06.432Z,53.53
2022-12-29T04:27:06.451Z,56.82
2022-12-29T04:28:06.448Z,56.46
2022-12-29T04:29:06.411Z,55.87
2022-12-29T04:30:06.411Z,56.67
2022-12-29T04:31:06.451Z,56.85
2022-12-29T04:32:06.482Z,58.36
2022-12-29T04:33:06.407Z,55.99
2022-12-29T04:34:06.404Z,56.95
2022-12-29T04:35:06.380Z,58.89
2022-12-29T04:36:06.367Z,56.78
2022-12-29T04:37:06.434Z,56.73
2022-12-29T04:38:06.383Z,58.78
2022-12-29T04:39:06.361Z,57.13
2022-12-29T04:40:06.350Z,58.30
2022-12-29T04:41:06.337Z,57.96
2022-12-29T04:42:06.338Z,59.24
2022-12-29T04:43:06.352Z,58.79
2022-12-29T04:44:06.309Z,59.62
2022-12-29T04:45:06.303Z,57.52
2022-12-29T04:46:07.002Z,55.14
2022-12-29T04:47:06.301Z,59.53
2022-12-29T04:48:06.324Z,57.79
2022-12-29T04:49:06.304Z,57.37
2022-12-29T04:50:06.295Z,60.05
2022-12-29T04:51:06.275Z,57.64
2022-12-29T04:52:06.318Z,60.11
2022-12-29T04:53:06.284Z,57.08
2022-12-29T04:54:06.248Z,58.27
2022-12-29T04:55:06.244Z,59.36
2022-12-29T04:56:06.249Z,57.22
2022-12-29T04:57:06.252Z,58.68
2022-12-29T04:58:06.239Z,57.09
2022-12-29T04:59:06.209Z,58.75
2022-12-29T05:00:06.202Z,58.78
2022-12-29T05:01:06.216Z,57.73
2022-12-29T05:02:06.360Z,59.85
2022-12-29T05:03:06.496Z,59.53
2022-12-29T05:04:06.172Z,55.63
2022-12-29T05:05:06.166Z,56.52
2022-12-29T05:06:06.159Z,56.93
2022-12-29T05:07:06.152Z,58.09
2022-12-29T05:08:07.150Z,59.11
2022-12-29T05:09:06.148Z,60.15
2022-12-29T05:10:06.145Z,60.95
2022-12-29T05:11:06.122Z,56.62
2022-12-29T05:12:06.123Z,59.12
2022-12-29T05:13:06.109Z,59.32
2022-12-29T05:14:06.125Z,58.03
2022-12-29T05:15:06.104Z,61.25
2022-12-29T05:16:06.218Z,60.77
2022-12-29T05:17:06.134Z,60.41
2022-12-29T05:18:06.075Z,59.65
2022-12-29T05:19:06.083Z,59.45
2022-12-29T05:20:06.064Z,59.75
2022-12-29T05:21:06.066Z,59.76
2022-12-29T05:22:06.053Z,58.80
2022-12-29T05:23:06.037Z,59.39
2022-12-29T05:24:06.059Z,61.87
2022-12-29T05:25:06.053Z,59.07
2022-12-29T05:26:06.016Z,59.36
2022-12-29T05:27:06.004Z,59.59
2022-12-29T05:28:06.007Z,62.07
2022-12-29T05:29:06.000Z,59.65
2022-12-29T05:30:06.013Z,57.68
2022-12-29T05:31:06.030Z,60.25
2022-12-29T05:32:05.974Z,61.65
2022-12-29T05:33:05.982Z,60.77
2022-12-29T05:34:05.973Z,58.14
2022-12-29T05:35:05.957Z,59.11
2022-12-29T05:36:06.021Z,58.54
2022-12-29T05:37:05.949Z,60.03
2022-12-29T05:38:05.930Z,60.33
2022-12-29T05:39:05.925Z,61.20
2022-12-29T05:40:05.967Z,60.29
2022-12-29T05:41:05.924Z,60.46
2022-12-29T05:42:05.960Z,59.25
2022-12-29T05:43:05.891Z,59.79
2022-12-29T05:44:05.884Z,59.76
2022-12-29T05:45:05.880Z,58.58
2022-12-29T05:46:05.873Z,58.18
2022-12-29T05:47:05.971Z,59.92
2022-12-29T05:48:05.860Z,60.87
2022-12-29T05:49:06.004Z,59.44
2022-12-29T05:50:05.850Z,60.75
2022-12-29T05:51:05.841Z,61.72
2022-12-29T05:52:05.835Z,59.91
2022-12-29T05:53:05.824Z,60.78
2022-12-29T05:54:05.817Z,59.03
2022-12-29T05:55:05.806Z,59.12
2022-12-29T05:56:05.810Z,60.62
2022-12-29T05:57:05.797Z,59.09
2022-12-29T05:58:06.783Z,59.91
2022-12-29T05:59:05.808Z,56.20
2022-12-29T06:00:05.774Z,59.07
2022-12-29T06:01:05.768Z,60.19
2022-12-29T06:02:05.999Z,60.76
2022-12-29T06:03:05.904Z,58.63
2022-12-29T06:04:05.762Z,61.87
2022-12-29T06:05:05.748Z,59.21
2022-12-29T06:06:05.742Z,60.03
2022-12-29T06:07:05.762Z,61.57
2022-12-29T06:08:05.730Z,58.43
2022-12-29T06:09:05.717Z,59.80
2022-12-29T06:10:05.703Z,61.27
2022-12-29T06:11:05.698Z,61.78
2022-12-29T06:12:05.719Z,59.14
2022-12-29T06:13:05.747Z,59.30
2022-12-29T06:14:05.691Z,58.03
2022-12-29T06:15:05.677Z,61.91
2022-12-29T06:16:05.692Z,61.11
2022-12-29T06:17:05.667Z,59.08
2022-12-29T06:18:05.651Z,59.68
2022-12-29T06:19:05.640Z,59.59
2022-12-29T06:20:05.624Z,59.27
2022-12-29T06:21:05.642Z,61.21
2022-12-29T06:22:05.626Z,62.70
2022-12-29T06:23:05.601Z,60.66
2022-12-29T06:24:05.605Z,59.81
2022-12-29T06:25:05.729Z,60.38
2022-12-29T06:26:05.614Z,61.49
2022-12-29T06:27:05.605Z,61.31
2022-12-29T06:28:05.597Z,61.09
2022-12-29T06:29:05.573Z,61.14
2022-12-29T06:30:05.562Z,61.96
2022-12-29T06:31:05.601Z,60.48
2022-12-29T06:32:05.705Z,60.90
2022-12-29T06:33:05.567Z,61.68
2022-12-29T06:34:08.460Z,62.60
2022-12-29T06:35:06.556Z,58.60
2022-12-29T06:36:05.516Z,62.07
2022-12-29T06:37:05.508Z,61.71
2022-12-29T06:38:05.520Z,63.00
2022-12-29T06:39:05.517Z,60.21
2022-12-29T06:40:05.516Z,62.14
2022-12-29T06:41:05.483Z,61.34
2022-12-29T06:42:05.467Z,60.83
2022-12-29T06:43:05.475Z,61.42
2022-12-29T06:44:05.479Z,61.64
2022-12-29T06:45:05.450Z,62.71
2022-12-29T06:46:05.577Z,62.58
2022-12-29T06:47:05.441Z,61.95
2022-12-29T06:48:05.429Z,60.53
2022-12-29T06:49:05.430Z,61.97
2022-12-29T06:50:05.455Z,61.45
2022-12-29T06:51:05.419Z,60.07
2022-12-29T06:52:12.260Z,61.34
2022-12-29T06:53:06.400Z,59.96
2022-12-29T06:54:05.403Z,60.47
2022-12-29T06:55:05.416Z,60.11
2022-12-29T06:56:05.381Z,59.44
2022-12-29T06:57:05.377Z,59.60
2022-12-29T06:58:05.371Z,59.69
2022-12-29T06:59:05.353Z,59.98
2022-12-29T07:00:05.396Z,58.34
2022-12-29T07:01:05.377Z,60.58
2022-12-29T07:02:05.541Z,60.20
2022-12-29T07:03:05.506Z,59.92
2022-12-29T07:04:05.321Z,61.19
2022-12-29T07:05:05.336Z,62.62
2022-12-29T07:06:05.312Z,61.27
2022-12-29T07:07:05.301Z,60.47
2022-12-29T07:08:05.297Z,59.07
2022-12-29T07:09:05.308Z,59.59
2022-12-29T07:10:05.299Z,59.11
2022-12-29T07:11:05.278Z,59.05
2022-12-29T07:12:05.270Z,58.87
2022-12-29T07:13:05.295Z,58.18
2022-12-29T07:14:05.259Z,59.26
2022-12-29T07:15:05.944Z,59.66
2022-12-29T07:16:05.267Z,60.91
2022-12-29T07:17:05.287Z,63.05
2022-12-29T07:18:05.228Z,59.02
2022-12-29T07:19:05.220Z,60.33
2022-12-29T07:20:05.211Z,60.18
2022-12-29T07:21:05.209Z,60.49
2022-12-29T07:22:05.212Z,59.02
2022-12-29T07:23:05.188Z,60.09
2022-12-29T07:24:05.188Z,59.51
2022-12-29T07:25:05.176Z,60.48
2022-12-29T07:26:05.166Z,61.39
2022-12-29T07:27:05.186Z,60.17
2022-12-29T07:28:05.208Z,60.14
2022-12-29T07:29:05.159Z,60.52
2022-12-29T07:30:05.136Z,58.94
2022-12-29T07:31:05.137Z,60.52
2022-12-29T07:32:05.305Z,59.30
2022-12-29T07:33:05.155Z,60.89
2022-12-29T07:34:05.108Z,59.33
2022-12-29T07:35:05.113Z,59.38
2022-12-29T07:36:05.100Z,60.10
2022-12-29T07:37:05.104Z,60.63
2022-12-29T07:38:05.096Z,60.46
2022-12-29T07:39:05.079Z,61.88
2022-12-29T07:40:05.068Z,60.98
2022-12-29T07:41:05.063Z,60.17
2022-12-29T07:42:05.490Z,60.96
2022-12-29T07:43:06.057Z,62.41
2022-12-29T07:44:05.043Z,60.52
2022-12-29T07:45:05.027Z,60.98
2022-12-29T07:46:05.087Z,59.21
2022-12-29T07:47:05.049Z,60.50
2022-12-29T07:48:05.005Z,61.19
2022-12-29T07:49:05.012Z,60.89
2022-12-29T07:50:05.131Z,60.98
2022-12-29T07:51:04.986Z,60.99
2022-12-29T07:52:05.000Z,59.75
2022-12-29T07:53:04.996Z,61.27
2022-12-29T07:54:05.040Z,61.85
2022-12-29T07:55:04.980Z,60.33
2022-12-29T07:56:04.956Z,60.94
2022-12-29T07:57:04.941Z,58.57
2022-12-29T07:58:04.949Z,60.61
2022-12-29T07:59:04.931Z,60.11
2022-12-29T08:00:04.939Z,59.77
2022-12-29T08:01:04.959Z,61.08
2022-12-29T08:02:05.012Z,61.32
2022-12-29T08:03:04.931Z,62.05
2022-12-29T08:04:04.933Z,61.25
2022-12-29T08:05:04.889Z,62.23
2022-12-29T08:06:04.893Z,61.28
2022-12-29T08:07:04.882Z,60.17
2022-12-29T08:08:04.885Z,61.17
2022-12-29T08:09:13.603Z,61.44
2022-12-29T08:10:06.865Z,61.35
2022-12-29T08:11:04.848Z,63.75
2022-12-29T08:12:04.836Z,60.71
2022-12-29T08:13:04.826Z,60.02
2022-12-29T08:14:04.833Z,63.63
2022-12-29T08:15:04.819Z,62.71
2022-12-29T08:16:04.855Z,62.68
2022-12-29T08:17:04.803Z,62.24
2022-12-29T08:18:04.809Z,60.54
2022-12-29T08:19:04.834Z,59.19
2022-12-29T08:20:04.781Z,60.99
2022-12-29T08:21:04.777Z,61.36
2022-12-29T08:22:04.766Z,61.84
2022-12-29T08:23:04.757Z,62.71
2022-12-29T08:24:04.773Z,61.85
2022-12-29T08:25:04.759Z,61.76
2022-12-29T08:26:04.748Z,60.63
2022-12-29T08:27:14.670Z,62.38
2022-12-29T08:28:06.729Z,61.08
2022-12-29T08:29:04.755Z,60.41
2022-12-29T08:30:04.722Z,63.25
2022-12-29T08:31:04.750Z,61.52
2022-12-29T08:32:04.695Z,60.19
2022-12-29T08:33:04.689Z,62.66
2022-12-29T08:34:04.685Z,61.99
2022-12-29T08:35:04.684Z,60.12
2022-12-29T08:36:04.694Z,63.39
2022-12-29T08:37:04.672Z,61.53
2022-12-29T08:38:04.645Z,63.01
2022-12-29T08:39:04.654Z,61.53
2022-12-29T08:40:04.679Z,60.78
2022-12-29T08:41:04.647Z,63.64
2022-12-29T08:42:04.641Z,61.71
2022-12-29T08:43:04.613Z,61.86
2022-12-29T08:44:04.597Z,60.53
2022-12-29T08:45:04.621Z,60.25
2022-12-29T08:46:04.646Z,61.61
2022-12-29T08:47:04.590Z,63.49
2022-12-29T08:48:04.572Z,61.50
2022-12-29T08:49:04.592Z,62.51
2022-12-29T08:50:04.555Z,61.42
2022-12-29T08:51:04.562Z,61.99
2022-12-29T08:52:04.557Z,61.29
2022-12-29T08:53:04.547Z,62.40
2022-12-29T08:54:04.565Z,63.33
2022-12-29T08:55:04.537Z,61.83
2022-12-29T08:56:05.644Z,63.09
2022-12-29T08:57:05.501Z,61.98
2022-12-29T08:58:04.503Z,63.03
2022-12-29T08:59:04.501Z,62.44
2022-12-29T09:00:04.528Z,61.60
2022-12-29T09:01:04.498Z,63.50
2022-12-29T09:02:04.547Z,63.17
2022-12-29T09:03:04.622Z,62.12
2022-12-29T09:04:15.043Z,61.22
2022-12-29T09:05:06.566Z,62.96
2022-12-29T09:06:05.471Z,63.51
2022-12-29T09:07:04.443Z,63.13
2022-12-29T09:08:04.441Z,63.86
2022-12-29T09:09:04.474Z,63.07
2022-12-29T09:10:04.436Z,62.41
2022-12-29T09:11:04.436Z,63.83
2022-12-29T09:12:04.420Z,62.13
2022-12-29T09:13:04.402Z,63.00
2022-12-29T09:14:04.409Z,63.12
2022-12-29T09:15:04.392Z,63.00
2022-12-29T09:16:04.457Z,62.47
2022-12-29T09:17:04.392Z,61.77
2022-12-29T09:18:04.398Z,61.50
2022-12-29T09:19:04.373Z,62.84
2022-12-29T09:20:04.365Z,61.57
2022-12-29T09:21:04.411Z,62.55
2022-12-29T09:22:04.359Z,62.32
2022-12-29T09:23:05.346Z,60.39
2022-12-29T09:24:04.352Z,61.23
2022-12-29T09:25:04.319Z,61.15
2022-12-29T09:26:04.312Z,60.96
2022-12-29T09:27:04.316Z,62.44
2022-12-29T09:28:04.312Z,60.92
2022-12-29T09:29:04.298Z,63.73
2022-12-29T09:30:04.283Z,63.50
2022-12-29T09:31:04.333Z,62.01
2022-12-29T09:32:07.607Z,61.01
2022-12-29T09:33:05.282Z,62.09
2022-12-29T09:34:04.259Z,61.33
2022-12-29T09:35:04.253Z,64.16
2022-12-29T09:36:04.288Z,62.54
2022-12-29T09:37:04.266Z,63.46
2022-12-29T09:38:04.270Z,62.72
2022-12-29T09:39:04.226Z,60.96
2022-12-29T09:40:04.273Z,61.71
2022-12-29T09:41:04.247Z,62.05
2022-12-29T09:42:04.226Z,61.87
2022-12-29T09:43:04.187Z,60.87
2022-12-29T09:44:04.207Z,62.09
2022-12-29T09:45:04.209Z,62.47
2022-12-29T09:46:04.163Z,61.01
2022-12-29T09:47:04.191Z,60.33
2022-12-29T09:48:09.556Z,60.03
2022-12-29T09:49:06.154Z,62.47
2022-12-29T09:50:05.143Z,62.17
2022-12-29T09:51:04.160Z,61.77
2022-12-29T09:52:04.145Z,62.35
2022-12-29T09:53:04.131Z,61.86
2022-12-29T09:54:04.127Z,62.73
2022-12-29T09:55:07.763Z,62.12
2022-12-29T09:56:06.900Z,62.26
2022-12-29T09:57:04.185Z,61.40
2022-12-29T09:58:04.098Z,62.10
2022-12-29T09:59:04.070Z,62.59
2022-12-29T10:00:04.105Z,60.22
2022-12-29T10:01:04.126Z,61.41
2022-12-29T10:02:04.289Z,60.50
2022-12-29T10:03:04.271Z,61.99
2022-12-29T10:04:04.138Z,61.96
2022-12-29T10:05:04.039Z,61.55
2022-12-29T10:06:04.042Z,60.92
2022-12-29T10:07:28.718Z,62.59
2022-12-29T10:08:06.043Z,61.58
2022-12-29T10:09:04.024Z,60.68
2022-12-29T10:10:04.008Z,60.90
2022-12-29T10:11:03.996Z,59.31
2022-12-29T10:12:04.011Z,60.21
2022-12-29T10:13:04.003Z,60.86
2022-12-29T10:14:04.112Z,60.93
2022-12-29T10:15:03.959Z,61.85
2022-12-29T10:16:04.033Z,61.70
2022-12-29T10:17:03.949Z,61.90
2022-12-29T10:18:03.952Z,61.35
2022-12-29T10:19:03.962Z,63.01
2022-12-29T10:20:03.984Z,61.67
2022-12-29T10:21:03.921Z,61.35
2022-12-29T10:22:03.925Z,60.90
2022-12-29T10:23:03.903Z,62.99
2022-12-29T10:24:03.907Z,62.33
2022-12-29T10:25:03.912Z,62.64
2022-12-29T10:26:03.972Z,60.70
2022-12-29T10:27:04.894Z,61.87
2022-12-29T10:28:03.866Z,62.12
2022-12-29T10:29:06.829Z,61.91
2022-12-29T10:30:03.857Z,60.87
2022-12-29T10:31:08.715Z,60.27
2022-12-29T10:32:05.882Z,61.90
2022-12-29T10:33:03.829Z,62.57
2022-12-29T10:34:03.828Z,61.89
2022-12-29T10:35:03.848Z,61.80
2022-12-29T10:36:03.818Z,61.72
2022-12-29T10:37:03.803Z,61.66
2022-12-29T10:38:03.855Z,63.77
2022-12-29T10:39:03.794Z,61.12
2022-12-29T10:40:03.830Z,62.12
2022-12-29T10:41:03.787Z,62.62
2022-12-29T10:42:03.778Z,61.72
2022-12-29T10:43:03.774Z,62.05
2022-12-29T10:44:03.755Z,61.77
2022-12-29T10:45:03.754Z,61.62
2022-12-29T10:46:03.836Z,61.90
2022-12-29T10:47:03.735Z,62.05
2022-12-29T10:48:03.741Z,62.56
2022-12-29T10:49:03.717Z,62.28
2022-12-29T10:50:03.754Z,61.72
2022-12-29T10:51:03.721Z,61.53
2022-12-29T10:52:03.704Z,62.67
2022-12-29T10:53:03.688Z,62.43
2022-12-29T10:54:03.673Z,61.07
2022-12-29T10:55:03.669Z,62.04
2022-12-29T10:56:03.681Z,60.98
2022-12-29T10:57:03.673Z,61.43
2022-12-29T10:58:03.679Z,63.66
2022-12-29T10:59:03.645Z,61.01
2022-12-29T11:00:03.697Z,62.98
2022-12-29T11:01:03.710Z,61.81
2022-12-29T11:02:03.855Z,63.40
2022-12-29T11:03:03.687Z,63.14
2022-12-29T11:04:03.621Z,61.93
2022-12-29T11:05:03.613Z,61.73
2022-12-29T11:06:03.615Z,62.16
2022-12-29T11:07:03.603Z,62.63
2022-12-29T11:08:03.598Z,61.61
2022-12-29T11:09:03.577Z,62.43
2022-12-29T11:10:03.594Z,62.59
2022-12-29T11:11:03.565Z,62.31
2022-12-29T11:12:03.568Z,63.31
2022-12-29T11:13:03.551Z,61.86
2022-12-29T11:14:03.546Z,63.39
2022-12-29T11:15:03.543Z,62.22
2022-12-29T11:16:03.633Z,63.35
2022-12-29T11:17:03.532Z,62.52
2022-12-29T11:18:03.587Z,63.53
2022-12-29T11:19:03.526Z,70.04
2022-12-29T11:20:03.508Z,65.30
2022-12-29T11:21:03.523Z,62.56
2022-12-29T11:22:03.496Z,64.12
2022-12-29T11:23:03.501Z,69.65
2022-12-29T11:24:03.500Z,65.57
2022-12-29T11:25:03.470Z,62.78
2022-12-29T11:26:03.481Z,61.56
2022-12-29T11:27:03.465Z,63.03
2022-12-29T11:28:03.464Z,61.77
2022-12-29T11:29:03.445Z,62.30
2022-12-29T11:30:03.459Z,61.84
2022-12-29T11:31:03.436Z,61.29
2022-12-29T11:32:03.511Z,63.72
2022-12-29T11:33:03.455Z,62.44
2022-12-29T11:34:03.472Z,62.01
2022-12-29T11:35:03.436Z,62.49
2022-12-29T11:36:03.455Z,63.25
2022-12-29T11:37:03.408Z,63.00
2022-12-29T11:38:03.484Z,62.60
2022-12-29T11:39:05.579Z,62.99
2022-12-29T11:40:03.403Z,62.57
2022-12-29T11:41:03.393Z,62.57
2022-12-29T11:42:03.402Z,61.92
2022-12-29T11:43:03.360Z,63.29
2022-12-29T11:44:03.383Z,62.42
2022-12-29T11:45:08.995Z,61.89
2022-12-29T11:46:05.389Z,62.73
2022-12-29T11:47:03.341Z,62.09
2022-12-29T11:48:03.331Z,60.16
2022-12-29T11:49:03.319Z,61.78
2022-12-29T11:50:03.413Z,62.30
2022-12-29T11:51:03.323Z,61.38
2022-12-29T11:52:03.298Z,62.64
2022-12-29T11:53:03.331Z,62.08
2022-12-29T11:54:03.305Z,61.94
2022-12-29T11:55:03.287Z,61.00
2022-12-29T11:56:03.282Z,60.22
2022-12-29T11:57:03.296Z,61.04
2022-12-29T11:58:03.263Z,60.63
2022-12-29T11:59:03.251Z,63.03
2022-12-29T12:00:03.263Z,62.96
2022-12-29T12:01:03.244Z,62.66
2022-12-29T12:02:03.440Z,61.31
2022-12-29T12:03:03.503Z,61.45
2022-12-29T12:04:03.344Z,63.49
2022-12-29T12:05:03.219Z,61.89
2022-12-29T12:06:03.300Z,62.77
2022-12-29T12:07:03.212Z,62.64
2022-12-29T12:08:03.220Z,63.44
2022-12-29T12:09:03.220Z,59.67
2022-12-29T12:10:07.357Z,60.82
2022-12-29T12:11:04.184Z,61.07
2022-12-29T12:12:03.183Z,62.11
2022-12-29T12:13:03.185Z,61.90
2022-12-29T12:14:03.218Z,60.68
2022-12-29T12:15:03.158Z,59.00
2022-12-29T12:16:03.197Z,59.78
2022-12-29T12:17:03.161Z,61.39
2022-12-29T12:18:03.185Z,62.67
2022-12-29T12:19:03.141Z,60.96
2022-12-29T12:20:03.131Z,61.98
2022-12-29T12:21:03.131Z,59.29
2022-12-29T12:22:03.141Z,60.72
2022-12-29T12:23:03.136Z,59.60
2022-12-29T12:24:03.113Z,61.19
2022-12-29T12:25:03.096Z,61.81
2022-12-29T12:26:03.089Z,61.74
2022-12-29T12:27:03.079Z,61.08
2022-12-29T12:28:03.080Z,61.79
2022-12-29T12:29:03.084Z,62.89
2022-12-29T12:30:03.068Z,61.89
2022-12-29T12:31:03.097Z,61.57
2022-12-29T12:32:03.049Z,61.63
2022-12-29T12:33:03.058Z,60.55
2022-12-29T12:34:03.074Z,60.94
2022-12-29T12:35:03.033Z,63.02
2022-12-29T12:36:03.017Z,60.52
2022-12-29T12:37:03.027Z,62.94
2022-12-29T12:38:03.128Z,60.70
2022-12-29T12:39:03.017Z,60.68
2022-12-29T12:40:03.002Z,60.92
2022-12-29T12:41:02.990Z,61.62
2022-12-29T12:42:02.983Z,61.87
2022-12-29T12:43:02.983Z,63.47
2022-12-29T12:44:02.972Z,61.05
2022-12-29T12:45:02.971Z,62.79
2022-12-29T12:46:02.966Z,61.99
2022-12-29T12:47:02.957Z,62.38
2022-12-29T12:48:02.948Z,63.35
2022-12-29T12:49:02.945Z,61.67
2022-12-29T12:50:02.936Z,62.25
2022-12-29T12:51:03.922Z,62.73
2022-12-29T12:52:05.490Z,62.98